Time;durP1;ratioP1;P1;durP2;ratioP2;P2;SDS_P1;SDS_P2;PMS_P1;PMS_P2;Temp;Humidity;BMP_temperature;BMP_pressure;BME280_temperature;BME280_humidity;BME280_pressure;Samples;Min_cycle;Max_cycle;Signal;HPM_P1;HPM_P2
2024/04/20 00:01:10;;;;;;;3.60;1.90;;;6.90;98.00;;;;;;5379465;26;20473;-85
2024/04/20 00:03:38;;;;;;;3.00;1.90;;;6.90;98.00;;;;;;5379089;26;20499;-86
2024/04/20 00:06:07;;;;;;;9.20;2.27;;;6.90;98.00;;;;;;5379694;26;20509;-86
2024/04/20 00:08:39;;;;;;;5.73;2.13;;;6.90;98.00;;;;;;5379232;26;20472;-86
2024/04/20 00:11:09;;;;;;;2.50;1.90;;;7.00;98.00;;;;;;5379032;26;20464;-86
2024/04/20 00:13:39;;;;;;;4.10;2.10;;;7.00;98.00;;;;;;5378303;26;20960;-86
2024/04/20 00:16:09;;;;;;;7.30;2.17;;;6.90;98.00;;;;;;5379595;26;20559;-85
2024/04/20 00:18:38;;;;;;;2.40;1.80;;;6.90;98.00;;;;;;5379066;26;20471;-86
2024/04/20 00:21:07;;;;;;;2.97;1.97;;;6.90;98.00;;;;;;5379222;26;20967;-85
2024/04/20 00:23:35;;;;;;;5.77;2.60;;;6.70;98.00;;;;;;5378335;26;20468;-86
2024/04/20 00:26:07;;;;;;;2.20;1.93;;;6.50;98.00;;;;;;5379129;26;20511;-85
2024/04/20 00:28:36;;;;;;;2.50;1.90;;;6.50;98.00;;;;;;5379433;26;20509;-85
2024/04/20 00:31:05;;;;;;;4.17;2.20;;;6.50;98.00;;;;;;5379280;26;20509;-86
2024/04/20 00:33:34;;;;;;;5.07;2.30;;;6.50;98.00;;;;;;5378343;26;20499;-86
2024/04/20 00:36:02;;;;;;;4.07;2.40;;;6.30;98.00;;;;;;5378909;26;20519;-86
2024/04/20 00:38:31;;;;;;;4.33;2.07;;;6.30;98.00;;;;;;5378854;26;20501;-85
2024/04/20 00:41:00;;;;;;;4.47;2.50;;;6.50;98.00;;;;;;5378710;26;20464;-85
2024/04/20 00:43:32;;;;;;;5.33;2.60;;;6.50;98.00;;;;;;5377402;26;20468;-86
2024/04/20 00:46:01;;;;;;;6.23;2.80;;;6.40;98.00;;;;;;5378931;26;20505;-85
2024/04/20 00:48:30;;;;;;;9.27;2.93;;;6.40;98.00;;;;;;5379057;26;20763;-86
2024/04/20 00:51:00;;;;;;;6.70;3.00;;;6.50;98.00;;;;;;5378789;26;20808;-86
2024/04/20 00:53:29;;;;;;;5.13;2.87;;;6.60;98.00;;;;;;5377715;26;20511;-86
2024/04/20 00:55:58;;;;;;;5.53;2.77;;;6.50;98.00;;;;;;5378723;26;20470;-85
2024/04/20 00:58:31;;;;;;;6.20;3.27;;;6.60;98.00;;;;;;5378620;26;20461;-85
2024/04/20 01:01:00;;;;;;;7.00;3.00;;;6.40;98.00;;;;;;5378650;26;20476;-86
2024/04/20 01:03:29;;;;;;;6.17;2.90;;;6.40;98.00;;;;;;5346461;26;20534;-85
2024/04/20 01:06:00;;;;;;;5.00;2.90;;;6.30;98.00;;;;;;5378686;26;20528;-85
2024/04/20 01:08:29;;;;;;;9.03;2.93;;;6.20;98.00;;;;;;5378459;26;20473;-86
2024/04/20 01:10:58;;;;;;;8.03;3.00;;;6.20;98.00;;;;;;5377443;26;20467;-86
2024/04/20 01:13:28;;;;;;;4.37;3.03;;;6.30;98.00;;;;;;5377615;26;20506;-86
2024/04/20 01:16:00;;;;;;;9.23;3.07;;;6.30;98.00;;;;;;5378821;26;20500;-85
2024/04/20 01:18:29;;;;;;;7.13;2.37;;;6.30;98.00;;;;;;5378670;26;20471;-85
2024/04/20 01:21:05;;;;;;;7.63;3.10;;;6.30;98.00;;;;;;5379127;26;20780;-86
2024/04/20 01:23:34;;;;;;;9.23;2.63;;;6.40;98.00;;;;;;5373631;26;20803;-85
2024/04/20 01:26:07;;;;;;;8.70;2.67;;;6.30;98.00;;;;;;5378107;26;20459;-86
2024/04/20 01:28:36;;;;;;;5.67;2.60;;;6.20;98.00;;;;;;5378037;26;20463;-85
2024/04/20 01:31:08;;;;;;;4.90;2.20;;;6.20;98.00;;;;;;5378074;26;20474;-85
2024/04/20 01:33:37;;;;;;;6.30;2.50;;;6.20;98.00;;;;;;5377414;26;20449;-85
2024/04/20 01:36:06;;;;;;;6.23;2.30;;;6.10;98.00;;;;;;5378092;26;20462;-86
2024/04/20 01:38:35;;;;;;;4.23;2.27;;;6.20;98.00;;;;;;5377955;26;20600;-86
2024/04/20 01:41:07;;;;;;;5.10;2.23;;;6.20;98.00;;;;;;5378129;26;20510;-85
2024/04/20 01:44:03;;;;;;;4.93;2.20;;;6.20;98.00;;;;;;5376892;26;20506;-85
2024/04/20 01:46:32;;;;;;;6.97;2.33;;;6.00;98.00;;;;;;5378078;26;20584;-85
2024/04/20 01:49:02;;;;;;;5.43;2.50;;;6.10;98.00;;;;;;5377863;26;20516;-86
2024/04/20 01:51:32;;;;;;;7.97;2.70;;;6.10;98.00;;;;;;5377529;26;20489;-85
2024/04/20 01:54:04;;;;;;;8.10;2.57;;;6.10;98.00;;;;;;5376758;26;20467;-85
2024/04/20 01:56:38;;;;;;;4.63;2.23;;;6.10;98.00;;;;;;5377992;26;20456;-85
2024/04/20 01:59:08;;;;;;;6.60;2.70;;;6.20;98.00;;;;;;5378027;26;20460;-86
2024/04/20 02:01:41;;;;;;;5.97;2.60;;;6.10;98.00;;;;;;5377596;26;20473;-86
2024/04/20 02:04:09;;;;;;;4.10;2.10;;;6.20;98.00;;;;;;5376747;26;20510;-86
2024/04/20 02:06:38;;;;;;;6.63;2.23;;;6.10;98.00;;;;;;5377730;26;20810;-85
2024/04/20 02:09:07;;;;;;;3.27;2.03;;;6.20;98.00;;;;;;5377495;26;20503;-86
2024/04/20 02:11:38;;;;;;;7.73;2.77;;;6.00;98.00;;;;;;5377478;26;20483;-86
2024/04/20 02:14:07;;;;;;;8.07;2.50;;;6.00;98.00;;;;;;5376761;26;20529;-86
2024/04/20 02:16:36;;;;;;;5.80;2.23;;;6.10;98.00;;;;;;5377695;26;20520;-86
2024/04/20 02:19:06;;;;;;;4.40;2.20;;;6.00;98.00;;;;;;5377467;26;20462;-85
2024/04/20 02:21:34;;;;;;;7.27;2.40;;;6.00;98.00;;;;;;5377279;26;20526;-85
2024/04/20 02:24:03;;;;;;;7.47;2.20;;;6.20;98.00;;;;;;5379880;26;20501;-86
2024/04/20 02:26:34;;;;;;;2.53;2.00;;;6.20;98.00;;;;;;5381094;26;20513;-86
2024/04/20 02:29:06;;;;;;;4.47;2.00;;;6.20;98.00;;;;;;5380564;26;20466;-85
2024/04/20 02:31:34;;;;;;;4.77;2.50;;;6.10;98.00;;;;;;5380524;26;20873;-86
2024/04/20 02:34:03;;;;;;;14.90;2.20;;;6.00;98.00;;;;;;5379664;26;20456;-85
2024/04/20 02:36:33;;;;;;;3.20;2.30;;;6.00;98.00;;;;;;5380604;26;20466;-85
2024/04/20 02:39:02;;;;;;;16.17;2.30;;;6.00;98.00;;;;;;5380617;26;21056;-85
2024/04/20 02:41:31;;;;;;;4.10;1.90;;;5.90;98.00;;;;;;5381055;26;20476;-85
2024/04/20 02:44:00;;;;;;;4.63;2.47;;;6.00;98.00;;;;;;5379723;26;20851;-85
2024/04/20 02:46:32;;;;;;;13.00;2.47;;;6.00;98.00;;;;;;5380691;26;20479;-85
2024/04/20 02:49:01;;;;;;;5.07;2.63;;;5.90;98.00;;;;;;5380746;26;20511;-85
2024/04/20 02:51:29;;;;;;;4.77;2.30;;;5.90;98.00;;;;;;5380106;26;20476;-85
2024/04/20 02:53:58;;;;;;;12.73;2.63;;;5.90;98.00;;;;;;5379637;26;20500;-85
2024/04/20 02:59:43;;;;;;;3.73;2.20;;;5.90;98.00;;;;;;5382247;26;20485;-86
2024/04/20 03:02:14;;;;;;;11.73;2.23;;;5.90;98.00;;;;;;5380553;26;21053;-85
2024/04/20 03:04:44;;;;;;;7.40;2.57;;;5.90;98.00;;;;;;5379744;26;20470;-85
2024/04/20 03:07:14;;;;;;;6.60;2.37;;;5.90;98.00;;;;;;5381001;26;20508;-85
2024/04/20 03:09:43;;;;;;;3.73;2.30;;;5.80;98.00;;;;;;5380846;26;20459;-85
2024/04/20 03:12:14;;;;;;;3.13;2.30;;;5.70;98.00;;;;;;5380035;26;20461;-85
2024/04/20 03:14:42;;;;;;;4.17;2.20;;;5.60;98.00;;;;;;5379209;26;20543;-86
2024/04/20 03:17:14;;;;;;;2.90;2.13;;;5.60;98.00;;;;;;5379956;26;20513;-85
2024/04/20 03:19:42;;;;;;;2.43;1.87;;;5.80;98.00;;;;;;5379615;26;20467;-86
2024/04/20 03:22:12;;;;;;;3.63;1.90;;;5.80;98.00;;;;;;5380074;26;21021;-85
2024/04/20 03:24:41;;;;;;;5.40;2.00;;;5.80;98.00;;;;;;5379498;26;21030;-85
2024/04/20 03:27:09;;;;;;;5.60;2.70;;;5.80;98.00;;;;;;5379897;26;20467;-85
2024/04/20 03:29:40;;;;;;;3.73;2.20;;;5.90;98.00;;;;;;5380100;26;20459;-85
2024/04/20 03:32:09;;;;;;;3.23;2.23;;;5.90;98.00;;;;;;5379575;26;20617;-86
2024/04/20 03:34:42;;;;;;;4.97;2.50;;;5.90;98.00;;;;;;5377853;26;20565;-86
2024/04/20 03:37:12;;;;;;;3.97;2.20;;;5.80;98.00;;;;;;5379935;26;20466;-86
2024/04/20 03:39:41;;;;;;;4.10;2.20;;;5.90;98.00;;;;;;5380644;26;20479;-86
2024/04/20 03:42:11;;;;;;;4.77;2.10;;;5.90;98.00;;;;;;5380287;26;20465;-85
2024/04/20 03:44:38;;;;;;;4.63;2.30;;;5.80;98.00;;;;;;5378104;26;20462;-85
2024/04/20 03:47:07;;;;;;;2.87;2.37;;;5.80;98.00;;;;;;5379434;26;20988;-85
2024/04/20 03:49:36;;;;;;;8.30;2.33;;;5.90;98.00;;;;;;5379164;26;20466;-85
2024/04/20 03:52:09;;;;;;;3.73;2.10;;;6.00;98.00;;;;;;5379501;26;20603;-85
2024/04/20 03:54:38;;;;;;;8.30;2.30;;;6.00;98.00;;;;;;5378418;26;20465;-85
2024/04/20 03:57:07;;;;;;;5.10;2.27;;;5.90;98.00;;;;;;5379361;26;20798;-85
2024/04/20 03:59:36;;;;;;;3.20;2.10;;;5.80;98.00;;;;;;5379338;26;21039;-85
2024/04/20 04:02:05;;;;;;;5.40;2.63;;;5.70;98.00;;;;;;5379119;26;20468;-85
2024/04/20 04:04:34;;;;;;;7.40;2.30;;;5.90;98.00;;;;;;5378622;26;20827;-85
2024/04/20 04:07:03;;;;;;;7.67;2.43;;;5.80;98.00;;;;;;5379366;26;20570;-85
2024/04/20 04:09:35;;;;;;;5.50;2.77;;;5.70;98.00;;;;;;5379405;26;20509;-86
2024/04/20 04:12:04;;;;;;;5.10;2.00;;;5.70;98.00;;;;;;5379192;26;20577;-85
2024/04/20 04:14:33;;;;;;;7.17;2.40;;;5.70;98.00;;;;;;5378187;26;20464;-85
2024/04/20 04:17:02;;;;;;;4.57;2.40;;;5.70;98.00;;;;;;5378913;26;20522;-86
2024/04/20 04:19:31;;;;;;;3.30;2.30;;;5.60;98.00;;;;;;5348493;26;20577;-85
2024/04/20 04:22:00;;;;;;;4.73;2.27;;;5.60;98.00;;;;;;5379444;26;20787;-86
2024/04/20 04:24:28;;;;;;;8.10;2.77;;;5.60;98.00;;;;;;5378068;26;20470;-85
2024/04/20 04:27:13;;;;;;;7.30;2.10;;;5.60;98.00;;;;;;5379523;26;20562;-85
2024/04/20 04:29:42;;;;;;;5.93;2.50;;;5.50;98.00;;;;;;5378910;26;20460;-85
2024/04/20 04:32:11;;;;;;;3.80;2.50;;;5.50;98.00;;;;;;5378906;26;20500;-86
2024/04/20 04:34:40;;;;;;;6.10;2.53;;;5.50;98.00;;;;;;5378106;26;20448;-86
2024/04/20 04:37:09;;;;;;;12.03;3.20;;;5.50;98.00;;;;;;5379392;26;20804;-86
2024/04/20 04:39:37;;;;;;;7.13;2.87;;;5.60;98.00;;;;;;5379240;26;20979;-85
2024/04/20 04:42:09;;;;;;;5.40;2.40;;;5.70;98.00;;;;;;5379078;26;20496;-85
2024/04/20 04:44:39;;;;;;;7.20;2.83;;;5.60;98.00;;;;;;5377358;26;20510;-86
2024/04/20 04:47:08;;;;;;;5.70;2.43;;;5.50;98.00;;;;;;5377279;26;20473;-84
2024/04/20 04:49:37;;;;;;;7.53;2.73;;;5.60;98.00;;;;;;5378035;26;20850;-85
2024/04/20 04:52:06;;;;;;;4.53;2.60;;;5.50;98.00;;;;;;5378779;26;20463;-84
2024/04/20 04:54:36;;;;;;;7.37;3.03;;;5.60;98.00;;;;;;5377868;26;20597;-85
2024/04/20 04:57:08;;;;;;;8.20;2.50;;;5.70;98.00;;;;;;5378696;26;20819;-85
2024/04/20 04:59:37;;;;;;;5.33;2.40;;;5.70;98.00;;;;;;5378752;26;20534;-85
2024/04/20 05:02:06;;;;;;;8.47;2.50;;;5.60;98.00;;;;;;5377959;26;20842;-84
2024/04/20 05:04:35;;;;;;;7.17;2.50;;;5.60;98.00;;;;;;5377742;26;20461;-84
2024/04/20 05:07:03;;;;;;;6.40;2.83;;;5.70;98.00;;;;;;5378447;26;20519;-84
2024/04/20 05:09:33;;;;;;;4.93;2.40;;;5.60;98.00;;;;;;5377959;26;20514;-85
2024/04/20 05:12:01;;;;;;;5.77;2.57;;;5.70;98.00;;;;;;5378393;26;20890;-84
2024/04/20 05:14:33;;;;;;;4.57;2.60;;;5.80;98.00;;;;;;5376783;26;20505;-84
2024/04/20 05:17:01;;;;;;;13.17;3.00;;;5.80;98.00;;;;;;5378169;26;20501;-85
2024/04/20 05:19:30;;;;;;;3.80;2.43;;;5.90;98.00;;;;;;5377545;26;20470;-84
2024/04/20 05:21:58;;;;;;;5.40;3.37;;;5.90;98.00;;;;;;5377838;26;20999;-85
2024/04/20 05:24:27;;;;;;;8.63;2.77;;;5.90;98.00;;;;;;5376462;26;20450;-85
2024/04/20 05:26:56;;;;;;;5.70;2.30;;;5.80;98.00;;;;;;5377863;26;20500;-84
2024/04/20 05:29:24;;;;;;;6.07;2.40;;;5.90;98.00;;;;;;5377376;26;20994;-84
2024/04/20 05:31:56;;;;;;;7.23;2.90;;;5.90;98.00;;;;;;5378229;26;20461;-85
2024/04/20 05:34:24;;;;;;;9.53;2.97;;;5.90;98.00;;;;;;5376589;26;20504;-84
2024/04/20 05:36:54;;;;;;;8.00;2.90;;;5.90;98.00;;;;;;5377657;26;20511;-84
2024/04/20 05:39:22;;;;;;;5.10;2.53;;;6.00;98.00;;;;;;5377554;26;20449;-84
2024/04/20 05:41:51;;;;;;;5.97;2.60;;;6.00;98.00;;;;;;5377322;26;20511;-85
2024/04/20 05:44:20;;;;;;;5.13;2.60;;;6.00;98.00;;;;;;5376206;26;20512;-85
2024/04/20 05:46:48;;;;;;;4.53;2.50;;;6.10;98.00;;;;;;5377290;26;20579;-84
2024/04/20 05:49:20;;;;;;;5.33;2.50;;;6.10;98.00;;;;;;5377527;26;20508;-84
2024/04/20 05:51:48;;;;;;;4.50;2.70;;;6.20;98.00;;;;;;5376627;26;20473;-83
2024/04/20 05:54:16;;;;;;;9.33;2.90;;;6.20;98.00;;;;;;5375790;26;21077;-84
2024/04/20 05:56:45;;;;;;;4.00;2.47;;;6.20;98.00;;;;;;5377840;26;20811;-85
2024/04/20 05:59:13;;;;;;;5.07;2.93;;;6.00;98.00;;;;;;5380463;26;20517;-85
2024/04/20 06:01:42;;;;;;;5.60;3.20;;;6.10;98.00;;;;;;5381117;26;20470;-85
2024/04/20 06:04:11;;;;;;;3.53;2.40;;;6.20;98.00;;;;;;5386858;26;20465;-86
2024/04/20 06:06:42;;;;;;;5.70;2.60;;;6.30;98.00;;;;;;5384905;26;20513;-85
2024/04/20 06:09:12;;;;;;;5.17;2.70;;;6.30;98.00;;;;;;5381231;26;20520;-85
2024/04/20 06:11:41;;;;;;;8.00;2.67;;;6.30;98.00;;;;;;5380589;26;20472;-85
2024/04/20 06:14:10;;;;;;;3.40;2.73;;;6.40;98.00;;;;;;5379727;26;20514;-85
2024/04/20 06:16:39;;;;;;;3.47;2.70;;;6.40;98.00;;;;;;5380384;26;20465;-85
2024/04/20 06:19:07;;;;;;;7.73;2.90;;;6.50;98.00;;;;;;5380675;26;20500;-85
2024/04/20 06:21:36;;;;;;;9.70;3.17;;;6.60;98.00;;;;;;5381329;26;20539;-85
2024/04/20 06:24:08;;;;;;;4.00;2.50;;;6.60;98.00;;;;;;5380562;26;20469;-85
2024/04/20 06:26:37;;;;;;;4.07;2.53;;;6.70;98.00;;;;;;5381437;26;20500;-84
2024/04/20 06:29:06;;;;;;;5.00;3.20;;;6.70;98.00;;;;;;5381141;26;20868;-85
2024/04/20 06:31:35;;;;;;;3.50;2.70;;;6.60;98.00;;;;;;5380811;26;20482;-85
2024/04/20 06:34:03;;;;;;;5.90;2.73;;;6.60;98.00;;;;;;5380477;26;20452;-85
2024/04/20 06:36:32;;;;;;;7.80;3.10;;;6.70;98.00;;;;;;5381103;26;20463;-85
2024/04/20 06:39:00;;;;;;;3.70;2.73;;;6.70;98.00;;;;;;5381157;26;20504;-85
2024/04/20 06:41:32;;;;;;;6.30;2.90;;;6.70;98.00;;;;;;5381298;26;20468;-85
2024/04/20 06:44:02;;;;;;;4.57;3.20;;;6.70;98.00;;;;;;5381064;26;20509;-85
2024/04/20 06:46:31;;;;;;;12.13;3.30;;;6.70;98.00;;;;;;5381747;26;20509;-85
2024/04/20 06:49:01;;;;;;;5.97;3.10;;;6.60;98.00;;;;;;5381410;26;20462;-85
2024/04/20 06:51:31;;;;;;;5.60;3.10;;;6.70;98.00;;;;;;5381539;26;20565;-85
2024/04/20 06:53:59;;;;;;;6.57;2.97;;;6.60;98.00;;;;;;5380184;26;20495;-85
2024/04/20 06:56:28;;;;;;;4.43;2.90;;;6.60;98.00;;;;;;5381031;26;20500;-85
2024/04/20 06:58:59;;;;;;;6.33;3.63;;;6.70;98.00;;;;;;5380982;26;20484;-85
2024/04/20 07:01:28;;;;;;;6.30;3.13;;;6.70;98.00;;;;;;5381457;26;21077;-85
2024/04/20 07:03:56;;;;;;;6.30;3.60;;;6.80;98.00;;;;;;5380047;26;20456;-85
2024/04/20 07:06:25;;;;;;;5.33;3.10;;;6.80;98.00;;;;;;5381917;26;21274;-85
2024/04/20 07:08:54;;;;;;;8.27;3.87;;;6.90;98.00;;;;;;5379918;26;20598;-85
2024/04/20 07:11:22;;;;;;;4.93;3.30;;;6.90;98.00;;;;;;5380559;26;20516;-85
2024/04/20 07:13:55;;;;;;;4.80;3.10;;;7.00;98.00;;;;;;5379808;26;20508;-85
2024/04/20 07:16:26;;;;;;;4.00;2.80;;;7.00;98.00;;;;;;5380956;26;20495;-85
2024/04/20 07:18:55;;;;;;;5.37;3.50;;;7.00;98.00;;;;;;5381134;26;20466;-85
2024/04/20 07:21:24;;;;;;;4.20;2.70;;;7.00;98.00;;;;;;5381017;26;20577;-85
2024/04/20 07:23:52;;;;;;;5.13;3.27;;;7.10;98.00;;;;;;5379710;26;20454;-85
2024/04/20 07:26:21;;;;;;;6.67;3.30;;;7.20;98.00;;;;;;5380478;26;20515;-85
2024/04/20 07:28:50;;;;;;;8.53;3.07;;;7.30;98.00;;;;;;5380309;26;20461;-85
2024/04/20 07:31:18;;;;;;;5.07;3.07;;;7.50;98.00;;;;;;5380565;26;20537;-85
2024/04/20 07:33:50;;;;;;;6.27;3.10;;;7.60;98.00;;;;;;5379495;26;20466;-85
2024/04/20 07:36:18;;;;;;;7.50;2.83;;;7.70;98.00;;;;;;5380557;26;20457;-86
2024/04/20 07:38:47;;;;;;;3.57;2.67;;;7.70;98.00;;;;;;5380495;26;20506;-85
2024/04/20 07:41:16;;;;;;;5.10;3.27;;;7.70;98.00;;;;;;5380372;26;20466;-85
2024/04/20 07:43:45;;;;;;;6.27;3.10;;;7.60;98.00;;;;;;5379608;26;20511;-85
2024/04/20 07:46:13;;;;;;;6.83;3.60;;;7.60;98.00;;;;;;5380189;26;20825;-85
2024/04/20 07:48:44;;;;;;;4.77;3.27;;;7.60;98.00;;;;;;5380336;26;20501;-85
2024/04/20 07:51:15;;;;;;;4.87;2.60;;;7.60;98.00;;;;;;5380139;26;20594;-85
2024/04/20 07:53:44;;;;;;;5.33;2.90;;;7.60;98.00;;;;;;5379506;26;20531;-85
2024/04/20 07:56:13;;;;;;;7.63;3.63;;;7.70;98.00;;;;;;5380173;26;20502;-85
2024/04/20 07:58:41;;;;;;;6.20;3.20;;;7.80;98.00;;;;;;5380362;26;20974;-85
2024/04/20 08:01:10;;;;;;;8.13;3.27;;;7.90;98.00;;;;;;5379636;26;20518;-85
2024/04/20 08:03:38;;;;;;;5.60;2.80;;;8.00;98.00;;;;;;5379254;26;20461;-85
2024/04/20 08:06:07;;;;;;;5.03;2.80;;;8.10;98.00;;;;;;5380419;26;20460;-85
2024/04/20 08:08:39;;;;;;;4.13;2.83;;;8.20;98.00;;;;;;5380061;26;20454;-85
2024/04/20 08:11:07;;;;;;;6.30;2.87;;;8.00;98.00;;;;;;5380364;26;20458;-85
2024/04/20 08:13:36;;;;;;;6.67;3.10;;;8.10;98.00;;;;;;5378992;26;20570;-85
2024/04/20 08:16:05;;;;;;;5.80;3.00;;;8.10;98.00;;;;;;5380229;26;20865;-85
2024/04/20 08:18:34;;;;;;;4.93;3.17;;;8.20;98.00;;;;;;5380105;26;20466;-85
2024/04/20 08:21:02;;;;;;;3.77;3.00;;;8.20;98.00;;;;;;5379755;26;20466;-85
2024/04/20 08:23:31;;;;;;;8.03;3.13;;;8.20;98.00;;;;;;5379049;26;20796;-85
2024/04/20 08:26:04;;;;;;;7.17;2.93;;;8.20;98.00;;;;;;5380220;26;20446;-85
2024/04/20 08:28:32;;;;;;;4.33;2.83;;;8.10;98.00;;;;;;5379862;26;20459;-85
2024/04/20 08:31:01;;;;;;;4.27;2.63;;;8.00;98.00;;;;;;5380108;26;20471;-85
2024/04/20 08:33:28;;;;;;;3.90;3.03;;;8.00;98.00;;;;;;5379144;26;20459;-85
2024/04/20 08:35:56;;;;;;;3.90;2.73;;;8.00;98.00;;;;;;5380616;26;20464;-85
2024/04/20 08:38:25;;;;;;;5.30;2.90;;;8.10;98.00;;;;;;5379985;26;20454;-85
2024/04/20 08:41:01;;;;;;;4.97;2.60;;;8.10;98.00;;;;;;5379704;26;20520;-85
2024/04/20 08:43:33;;;;;;;6.10;2.83;;;8.10;98.00;;;;;;5377925;26;20468;-85
2024/04/20 08:46:04;;;;;;;4.80;3.03;;;8.10;98.00;;;;;;5379716;26;20470;-85
2024/04/20 08:48:33;;;;;;;4.10;2.70;;;8.20;98.00;;;;;;5379670;26;21339;-85
2024/04/20 08:51:04;;;;;;;7.37;3.13;;;8.20;98.00;;;;;;5379626;26;20476;-85
2024/04/20 08:53:42;;;;;;;3.03;2.30;;;8.20;98.00;;;;;;5378084;26;20503;-85
2024/04/20 08:56:11;;;;;;;3.73;2.47;;;8.10;98.00;;;;;;5379510;26;20470;-85
2024/04/20 08:58:42;;;;;;;3.90;2.50;;;8.30;98.00;;;;;;5379417;26;20847;-86
2024/04/20 09:01:14;;;;;;;7.20;2.80;;;8.50;98.00;;;;;;5379716;26;20474;-86
2024/04/20 09:03:44;;;;;;;3.60;2.50;;;8.60;98.00;;;;;;5378516;26;20453;-86
2024/04/20 09:06:14;;;;;;;5.77;2.80;;;8.50;98.00;;;;;;5379251;26;20514;-85
2024/04/20 09:08:45;;;;;;;3.83;2.73;;;8.40;98.00;;;;;;5379088;26;20459;-85
2024/04/20 09:11:14;;;;;;;6.40;2.50;;;8.10;98.00;;;;;;5379198;26;20801;-85
2024/04/20 09:13:45;;;;;;;6.10;2.53;;;8.00;98.00;;;;;;5378377;26;20450;-85
2024/04/20 09:16:15;;;;;;;3.20;2.30;;;8.00;98.00;;;;;;5379488;26;20462;-86
2024/04/20 09:18:43;;;;;;;5.90;3.03;;;7.90;98.00;;;;;;5379246;26;20488;-85
2024/04/20 09:21:12;;;;;;;4.70;2.70;;;7.90;98.00;;;;;;5378888;26;20479;-85
2024/04/20 09:23:42;;;;;;;3.70;3.10;;;8.00;98.00;;;;;;5377965;26;20474;-85
2024/04/20 09:26:12;;;;;;;4.03;2.60;;;7.90;98.00;;;;;;5379115;26;20560;-86
2024/04/20 09:28:42;;;;;;;4.83;2.67;;;7.90;98.00;;;;;;5379046;26;20463;-86
2024/04/20 09:31:13;;;;;;;4.50;2.70;;;7.90;98.00;;;;;;5378483;26;20518;-85
2024/04/20 09:33:46;;;;;;;4.33;2.90;;;8.00;98.00;;;;;;5377571;26;20516;-86
2024/04/20 09:36:15;;;;;;;3.93;2.70;;;8.20;98.00;;;;;;5379934;26;20469;-86
2024/04/20 09:38:44;;;;;;;7.90;3.27;;;8.30;98.00;;;;;;5379524;26;20494;-86
2024/04/20 09:41:16;;;;;;;6.50;3.20;;;8.40;98.00;;;;;;5378408;26;21002;-85
2024/04/20 09:43:48;;;;;;;6.27;3.30;;;8.60;98.00;;;;;;5377731;26;20868;-86
2024/04/20 09:46:20;;;;;;;10.07;3.80;;;8.70;98.00;;;;;;5378718;26;20527;-85
2024/04/20 09:48:50;;;;;;;9.70;3.40;;;8.80;98.00;;;;;;5378404;26;20506;-86
2024/04/20 09:51:24;;;;;;;4.37;2.80;;;8.90;98.00;;;;;;5378209;26;20474;-86
2024/04/20 09:53:55;;;;;;;7.70;3.50;;;9.00;98.00;;;;;;5377363;26;20510;-84
2024/04/20 09:56:32;;;;;;;5.90;3.10;;;9.20;98.00;;;;;;5378569;26;20456;-86
2024/04/20 10:01:53;;;;;;;7.13;3.73;;;9.30;98.00;;;;;;5378020;26;20554;-85
2024/04/20 10:04:24;;;;;;;4.30;3.00;;;9.20;98.00;;;;;;5377194;26;20470;-86
2024/04/20 10:06:53;;;;;;;5.80;3.30;;;9.20;98.00;;;;;;5378222;26;20507;-86
2024/04/20 10:09:22;;;;;;;6.13;3.23;;;9.10;98.00;;;;;;5378034;26;21057;-85
2024/04/20 10:11:52;;;;;;;5.03;3.27;;;9.00;98.00;;;;;;5378401;26;20479;-85
2024/04/20 10:14:21;;;;;;;4.90;3.00;;;8.90;98.00;;;;;;5377341;26;21001;-86
2024/04/20 10:16:52;;;;;;;5.90;3.00;;;8.90;98.00;;;;;;5378430;26;20460;-85
2024/04/20 10:19:21;;;;;;;3.87;2.87;;;8.80;98.00;;;;;;5378222;26;20502;-86
2024/04/20 10:21:49;;;;;;;4.73;3.10;;;8.80;98.00;;;;;;5378187;26;20487;-84
2024/04/20 10:24:18;;;;;;;4.83;2.90;;;8.80;98.00;;;;;;5377343;26;21084;-85
2024/04/20 10:26:48;;;;;;;5.27;2.80;;;8.80;98.00;;;;;;5379733;26;20470;-86
2024/04/20 10:29:24;;;;;;;6.80;3.53;;;8.90;98.00;;;;;;5380979;26;20808;-85
2024/04/20 10:32:06;;;;;;;5.47;3.10;;;9.10;98.00;;;;;;5378439;26;20548;-86
2024/04/20 10:34:35;;;;;;;5.50;3.50;;;9.20;98.00;;;;;;5376619;26;20519;-85
2024/04/20 10:37:08;;;;;;;4.40;3.10;;;9.40;98.00;;;;;;5377882;26;20459;-85
2024/04/20 10:39:38;;;;;;;4.90;2.63;;;9.80;98.00;;;;;;5377748;26;20577;-85
2024/04/20 10:42:10;;;;;;;7.47;3.30;;;10.20;98.00;;;;;;5377506;26;20452;-86
2024/04/20 10:44:38;;;;;;;7.07;3.37;;;10.20;98.00;;;;;;5379819;26;20509;-86
2024/04/20 10:47:10;;;;;;;5.33;3.07;;;10.20;98.00;;;;;;5381355;26;20564;-86
2024/04/20 10:49:46;;;;;;;4.90;3.10;;;10.10;98.00;;;;;;5381397;26;20507;-86
2024/04/20 10:52:21;;;;;;;5.17;2.83;;;9.80;98.00;;;;;;5381016;26;20460;-86
2024/04/20 10:54:50;;;;;;;4.30;3.00;;;9.80;98.00;;;;;;5380086;26;20455;-85
2024/04/20 10:57:19;;;;;;;4.03;3.00;;;9.70;98.00;;;;;;5380817;26;20452;-85
2024/04/20 10:59:47;;;;;;;8.87;3.93;;;9.70;98.00;;;;;;5380942;26;20474;-86
2024/04/20 11:02:19;;;;;;;9.80;5.33;;;9.60;98.00;;;;;;5380834;26;20504;-86
2024/04/20 11:04:48;;;;;;;7.43;4.70;;;9.60;98.00;;;;;;5379565;26;20464;-86
2024/04/20 11:07:19;;;;;;;7.10;4.10;;;9.60;98.00;;;;;;5380787;26;20459;-86
2024/04/20 11:09:49;;;;;;;8.27;4.00;;;9.60;98.00;;;;;;5380757;26;20521;-86
2024/04/20 11:12:20;;;;;;;4.07;3.07;;;9.70;98.00;;;;;;5381338;26;20520;-86
2024/04/20 11:14:49;;;;;;;5.83;3.43;;;9.70;98.00;;;;;;5380110;26;20524;-86
2024/04/20 11:17:22;;;;;;;5.20;3.23;;;9.80;98.00;;;;;;5380680;26;20975;-86
2024/04/20 11:19:50;;;;;;;11.23;5.57;;;9.80;98.00;;;;;;5380445;26;20455;-85
2024/04/20 11:22:20;;;;;;;9.67;5.13;;;9.80;98.00;;;;;;5380605;26;20872;-85
2024/04/20 11:24:48;;;;;;;8.13;4.20;;;9.80;98.00;;;;;;5380038;26;20510;-85
2024/04/20 11:27:17;;;;;;;5.00;3.43;;;9.80;98.00;;;;;;5380483;26;20511;-86
2024/04/20 11:29:46;;;;;;;5.07;3.00;;;9.80;98.00;;;;;;5380310;26;20514;-86
2024/04/20 11:32:25;;;;;;;6.17;3.20;;;9.90;98.00;;;;;;5380551;26;20832;-85
2024/04/20 11:34:54;;;;;;;3.43;2.50;;;10.10;98.00;;;;;;5379477;26;20509;-86
2024/04/20 11:37:24;;;;;;;15.80;3.70;;;10.30;98.00;;;;;;5380330;26;20518;-85
2024/04/20 11:40:03;;;;;;;4.30;2.63;;;10.30;98.00;;;;;;5380332;26;20590;-86
2024/04/20 11:42:32;;;;;;;7.83;3.47;;;10.30;98.00;;;;;;5380270;26;20468;-85
2024/04/20 11:45:04;;;;;;;3.50;2.50;;;10.30;98.00;;;;;;5379374;26;20472;-86
2024/04/20 11:47:36;;;;;;;4.10;2.90;;;10.20;98.00;;;;;;5380329;26;20461;-86
2024/04/20 11:50:09;;;;;;;6.60;3.27;;;10.30;98.00;;;;;;5380176;26;20478;-86
2024/04/20 11:55:23;;;;;;;4.10;2.77;;;10.90;98.00;;;;;;5381018;26;20536;-85
2024/04/20 11:57:54;;;;;;;6.23;3.67;;;11.30;98.00;;;;;;5380316;26;20465;-86
2024/04/20 12:00:23;;;;;;;6.30;3.13;;;11.50;98.00;;;;;;5380258;26;20538;-85
2024/04/20 12:02:55;;;;;;;4.87;2.80;;;11.50;98.00;;;;;;5380180;26;20502;-86
2024/04/20 12:05:23;;;;;;;4.27;2.80;;;11.40;98.00;;;;;;5379005;26;20521;-86
2024/04/20 12:07:52;;;;;;;4.83;3.03;;;11.10;98.00;;;;;;5380141;26;20448;-85
2024/04/20 12:10:22;;;;;;;4.80;3.00;;;10.90;98.00;;;;;;5379985;26;21064;-86
2024/04/20 12:12:50;;;;;;;6.27;3.27;;;10.60;98.00;;;;;;5380049;26;20453;-86
2024/04/20 12:15:19;;;;;;;8.93;2.97;;;10.30;98.00;;;;;;5379021;26;20460;-86
2024/04/20 12:17:48;;;;;;;9.47;4.80;;;10.00;98.00;;;;;;5380293;26;20518;-86
2024/04/20 12:20:19;;;;;;;7.00;4.20;;;10.00;98.00;;;;;;5380609;26;20529;-86
2024/04/20 12:22:48;;;;;;;6.10;4.20;;;10.10;98.00;;;;;;5380309;26;20472;-85
2024/04/20 12:25:17;;;;;;;6.60;4.20;;;10.30;98.00;;;;;;5378856;26;20513;-86
2024/04/20 12:27:48;;;;;;;5.07;3.20;;;10.30;98.00;;;;;;5379899;26;20527;-85
2024/04/20 12:30:17;;;;;;;5.17;3.17;;;10.40;98.00;;;;;;5379425;26;20524;-86
2024/04/20 12:32:46;;;;;;;4.20;3.10;;;10.40;98.00;;;;;;5379851;26;20506;-85
2024/04/20 12:35:14;;;;;;;4.30;3.10;;;10.40;98.00;;;;;;5378878;26;20464;-85
2024/04/20 12:37:46;;;;;;;5.30;3.33;;;10.40;98.00;;;;;;5379784;26;20462;-86
2024/04/20 12:40:14;;;;;;;5.13;3.37;;;10.60;98.00;;;;;;5379883;26;20880;-86
2024/04/20 12:42:43;;;;;;;4.70;3.20;;;10.80;98.00;;;;;;5379556;26;20452;-86
2024/04/20 12:45:11;;;;;;;5.00;2.90;;;11.00;98.00;;;;;;5378247;26;20523;-86
2024/04/20 12:47:41;;;;;;;8.97;3.00;;;10.80;98.00;;;;;;5379820;26;20466;-86
2024/04/20 12:50:09;;;;;;;6.10;3.27;;;10.60;98.00;;;;;;5379596;26;20513;-86
2024/04/20 12:52:38;;;;;;;3.47;2.60;;;10.60;98.00;;;;;;5379411;26;20457;-86
2024/04/20 12:55:10;;;;;;;3.87;2.93;;;10.50;98.00;;;;;;5378734;26;20501;-86
2024/04/20 12:57:38;;;;;;;4.10;2.77;;;10.60;98.00;;;;;;5379148;26;20462;-85
2024/04/20 13:00:09;;;;;;;4.70;2.87;;;10.60;98.00;;;;;;5378776;26;20482;-86
2024/04/20 13:02:37;;;;;;;4.03;2.60;;;10.80;98.00;;;;;;5378967;26;20463;-86
2024/04/20 13:05:08;;;;;;;5.90;2.83;;;11.00;98.00;;;;;;5378270;26;20460;-86
2024/04/20 13:10:21;;;;;;;3.00;2.63;;;11.50;98.00;;;;;;5377612;26;20487;-86
2024/04/20 13:12:51;;;;;;;2.90;2.37;;;11.70;98.00;;;;;;5379347;26;20459;-86
2024/04/20 13:15:19;;;;;;;3.23;2.37;;;11.70;98.00;;;;;;5378339;26;21034;-86
2024/04/20 13:17:48;;;;;;;3.23;2.30;;;11.70;98.00;;;;;;5378895;26;20494;-86
2024/04/20 13:20:17;;;;;;;2.53;2.17;;;11.70;98.00;;;;;;5378824;26;20479;-86